createdAt,value
2022-08-11T00:01:17.484Z,78.30
2022-08-11T00:03:48.712Z,78.20
2022-08-11T00:06:24.140Z,78.70
2022-08-11T00:08:51.758Z,78.70
2022-08-11T00:11:19.877Z,79.20
2022-08-11T00:13:49.895Z,79.00
2022-08-11T00:16:16.688Z,79.30
2022-08-11T00:18:46.865Z,79.70
2022-08-11T00:21:15.007Z,79.80
2022-08-11T00:23:47.813Z,80.30
2022-08-11T00:26:16.786Z,80.30
2022-08-11T00:28:43.711Z,80.40
2022-08-11T00:31:23.244Z,80.60
2022-08-11T00:33:51.670Z,81.00
2022-08-11T00:36:25.292Z,81.00
2022-08-11T00:38:53.833Z,81.10
2022-08-11T00:41:39.326Z,81.30
2022-08-11T00:44:43.762Z,81.70
2022-08-11T00:47:38.991Z,82.20
2022-08-11T00:50:26.687Z,82.70
2022-08-11T00:53:15.307Z,82.40
2022-08-11T00:56:17.018Z,82.80
2022-08-11T00:59:34.495Z,83.10
2022-08-11T01:02:11.211Z,83.30
2022-08-11T01:05:13.484Z,83.30
2022-08-11T01:08:01.582Z,83.50
2022-08-11T01:11:03.838Z,83.80
2022-08-11T01:13:43.168Z,83.90
2022-08-11T01:16:31.155Z,84.10
2022-08-11T01:19:19.846Z,84.40
2022-08-11T01:22:08.269Z,84.30
2022-08-11T01:24:50.223Z,85.00
2022-08-11T01:27:41.848Z,85.10
2022-08-11T01:30:52.314Z,85.30
2022-08-11T01:33:59.525Z,85.50
2022-08-11T01:36:56.589Z,85.70
2022-08-11T01:39:45.614Z,86.00
2022-08-11T01:42:37.295Z,86.20
2022-08-11T01:45:29.344Z,86.30
2022-08-11T01:48:20.967Z,86.60
2022-08-11T01:51:17.617Z,87.00
2022-08-11T01:54:11.985Z,87.30
2022-08-11T01:57:10.131Z,87.50
2022-08-11T02:00:02.551Z,87.60
2022-08-11T02:02:56.999Z,88.40
2022-08-11T02:05:45.829Z,88.30
2022-08-11T02:08:33.290Z,88.70
2022-08-11T02:11:35.614Z,89.20
2022-08-11T02:14:28.680Z,89.80
2022-08-11T02:17:34.658Z,90.00
2022-08-11T02:20:43.344Z,90.00
2022-08-11T02:24:04.975Z,90.10
2022-08-11T02:26:41.292Z,90.30
2022-08-11T02:29:37.777Z,90.50
2022-08-11T02:32:30.303Z,90.60
2022-08-11T02:35:20.026Z,90.60
2022-08-11T02:38:11.465Z,90.80
2022-08-11T02:41:01.089Z,90.90
2022-08-11T02:43:52.790Z,91.20
2022-08-11T02:46:32.743Z,91.40
2022-08-11T02:49:30.984Z,91.40
2022-08-11T02:52:34.289Z,91.50
2022-08-11T02:55:56.259Z,91.50
2022-08-11T02:58:29.096Z,91.60
2022-08-11T03:01:24.514Z,91.70
2022-08-11T03:04:00.592Z,92.00
2022-08-11T03:06:35.603Z,92.00
2022-08-11T03:09:19.106Z,92.10
2022-08-11T03:12:37.268Z,92.20
2022-08-11T03:15:37.412Z,92.60
2022-08-11T03:18:33.094Z,93.00
2022-08-11T03:21:15.873Z,93.20
2022-08-11T03:24:05.026Z,93.20
2022-08-11T03:27:13.250Z,93.40
2022-08-11T03:30:01.570Z,93.40
2022-08-11T03:32:42.298Z,93.60
2022-08-11T03:35:11.476Z,93.70
2022-08-11T03:38:02.776Z,93.70
2022-08-11T03:42:03.453Z,93.90
2022-08-11T03:44:34.347Z,94.20
2022-08-11T03:47:15.214Z,94.20
2022-08-11T03:50:00.415Z,94.20
2022-08-11T03:52:42.185Z,94.40
2022-08-11T03:55:12.324Z,94.60
2022-08-11T03:58:16.921Z,94.70
2022-08-11T04:01:11.362Z,94.90
2022-08-11T04:04:03.271Z,95.10
2022-08-11T04:06:48.996Z,95.30
2022-08-11T04:09:24.988Z,95.70
2022-08-11T04:12:36.501Z,95.80
2022-08-11T04:15:50.678Z,95.90
2022-08-11T04:18:36.102Z,96.00
2022-08-11T04:21:03.146Z,96.20
2022-08-11T04:24:36.062Z,96.50
2022-08-11T04:26:56.608Z,96.60
2022-08-11T04:30:03.269Z,96.70
2022-08-11T04:32:56.193Z,96.80
2022-08-11T04:35:48.638Z,96.70
2022-08-11T04:38:36.740Z,96.80
2022-08-11T04:42:13.216Z,96.70
2022-08-11T04:45:12.048Z,97.10
2022-08-11T04:48:16.673Z,96.80
2022-08-11T04:51:33.139Z,96.30
2022-08-11T04:54:45.651Z,96.50
2022-08-11T04:57:45.823Z,96.80
2022-08-11T05:00:32.778Z,97.20
2022-08-11T05:03:08.404Z,97.20
2022-08-11T05:06:14.737Z,97.30
2022-08-11T05:09:03.045Z,97.30
2022-08-11T05:11:45.175Z,97.30
2022-08-11T05:14:30.319Z,97.50
2022-08-11T05:17:18.836Z,97.90
2022-08-11T05:20:07.628Z,98.00
2022-08-11T05:22:55.175Z,97.80
2022-08-11T05:26:44.984Z,97.80
2022-08-11T05:29:20.283Z,98.00
2022-08-11T05:32:15.443Z,97.80
2022-08-11T05:34:59.776Z,97.80
2022-08-11T05:37:29.617Z,98.00
2022-08-11T05:40:26.815Z,98.00
2022-08-11T05:43:24.064Z,97.80
2022-08-11T05:46:21.138Z,97.70
2022-08-11T05:49:07.751Z,97.80
2022-08-11T05:51:57.073Z,97.80
2022-08-11T05:54:46.648Z,97.90
2022-08-11T05:57:48.986Z,97.80
2022-08-11T06:00:12.403Z,97.60
2022-08-11T06:02:43.414Z,97.70
2022-08-11T06:05:11.281Z,97.40
2022-08-11T06:07:49.139Z,97.40
2022-08-11T06:10:47.040Z,97.20
2022-08-11T06:13:18.256Z,97.40
2022-08-11T06:15:47.937Z,97.30
2022-08-11T06:18:16.082Z,97.10
2022-08-11T06:20:56.749Z,96.80
2022-08-11T06:23:25.896Z,96.80
2022-08-11T06:25:56.312Z,96.90
2022-08-11T06:28:33.754Z,97.10
2022-08-11T06:31:02.479Z,97.30
2022-08-11T06:33:45.290Z,97.40
2022-08-11T06:36:30.938Z,97.30
2022-08-11T06:39:20.497Z,97.10
2022-08-11T06:41:53.467Z,97.10
2022-08-11T06:44:40.268Z,97.00
2022-08-11T06:47:12.809Z,96.50
2022-08-11T06:50:06.511Z,96.80
2022-08-11T06:52:36.982Z,96.60
2022-08-11T06:55:57.812Z,96.40
2022-08-11T06:58:54.070Z,96.60
2022-08-11T07:01:55.912Z,96.40
2022-08-11T07:04:43.382Z,96.40
2022-08-11T07:07:50.175Z,96.40
2022-08-11T07:10:57.223Z,96.00
2022-08-11T07:13:45.901Z,96.10
2022-08-11T07:16:24.360Z,95.80
2022-08-11T07:19:16.709Z,95.90
2022-08-11T07:22:04.714Z,96.00
2022-08-11T07:25:21.814Z,95.50
2022-08-11T07:28:15.011Z,95.50
2022-08-11T07:30:42.647Z,95.00
2022-08-11T07:33:21.120Z,94.90
2022-08-11T07:36:01.062Z,94.80
2022-08-11T07:38:47.195Z,94.50
2022-08-11T07:41:16.679Z,94.50
2022-08-11T07:43:49.131Z,94.20
2022-08-11T07:46:36.134Z,94.20
2022-08-11T07:49:24.302Z,93.90
2022-08-11T07:52:10.964Z,93.60
2022-08-11T07:54:39.446Z,93.40
2022-08-11T07:57:50.116Z,93.40
2022-08-11T08:00:38.085Z,93.70
2022-08-11T08:03:25.649Z,93.70
2022-08-11T08:06:35.545Z,93.20
2022-08-11T08:09:17.873Z,92.90
2022-08-11T08:12:05.267Z,93.10
2022-08-11T08:14:51.954Z,93.00
2022-08-11T08:17:40.140Z,92.60
2022-08-11T08:20:11.459Z,92.30
2022-08-11T08:22:40.139Z,92.10
2022-08-11T08:25:09.918Z,91.80
2022-08-11T08:27:38.615Z,91.40
2022-08-11T08:30:25.862Z,91.00
2022-08-11T08:32:53.653Z,90.70
2022-08-11T08:35:21.821Z,91.00
2022-08-11T08:37:51.330Z,90.50
2022-08-11T08:40:18.894Z,90.40
2022-08-11T08:43:02.597Z,90.60
2022-08-11T08:45:34.249Z,90.00
2022-08-11T08:48:10.983Z,90.00
2022-08-11T08:51:02.946Z,89.50
2022-08-11T08:53:35.091Z,88.10
2022-08-11T08:56:03.150Z,88.40
2022-08-11T08:58:31.162Z,87.40
2022-08-11T09:01:01.890Z,87.50
2022-08-11T09:03:41.861Z,86.20
2022-08-11T09:06:17.234Z,85.40
2022-08-11T09:08:45.528Z,85.30
2022-08-11T09:11:33.306Z,85.00
2022-08-11T09:14:05.639Z,84.40
2022-08-11T09:16:34.631Z,83.10
2022-08-11T09:19:02.304Z,82.30
2022-08-11T09:21:39.765Z,81.40
2022-08-11T09:24:34.322Z,82.20
2022-08-11T09:27:08.327Z,80.10
2022-08-11T09:29:37.913Z,79.40
2022-08-11T09:32:07.106Z,79.50
2022-08-11T09:34:36.636Z,79.20
2022-08-11T09:37:29.035Z,77.60
2022-08-11T09:40:29.442Z,76.50
2022-08-11T09:43:36.731Z,74.00
2022-08-11T09:46:05.439Z,74.60
2022-08-11T09:48:38.558Z,72.20
2022-08-11T09:51:08.097Z,71.30
2022-08-11T09:53:41.552Z,71.50
2022-08-11T09:56:35.893Z,72.70
2022-08-11T09:59:04.563Z,74.20
2022-08-11T10:01:35.962Z,70.70
2022-08-11T10:04:18.736Z,71.30
2022-08-11T10:07:10.493Z,70.30
2022-08-11T10:09:45.739Z,67.00
2022-08-11T10:12:27.181Z,68.20
2022-08-11T10:15:39.590Z,64.70
2022-08-11T10:18:42.299Z,67.80
2022-08-11T10:21:35.976Z,66.40
2022-08-11T10:24:23.532Z,67.30
2022-08-11T10:26:55.693Z,68.00
2022-08-11T10:29:49.813Z,67.20
2022-08-11T10:32:57.493Z,64.30
2022-08-11T10:35:27.714Z,62.90
2022-08-11T10:38:06.060Z,62.60
2022-08-11T10:40:46.856Z,63.90
2022-08-11T10:44:01.896Z,64.60
2022-08-11T10:46:30.000Z,64.20
2022-08-11T10:48:58.274Z,64.60
2022-08-11T10:51:51.203Z,62.90
2022-08-11T10:54:39.369Z,64.60
2022-08-11T10:57:25.109Z,63.40
2022-08-11T10:59:56.073Z,62.10
2022-08-11T11:02:23.796Z,60.90
2022-08-11T11:04:59.527Z,61.70
2022-08-11T11:08:38.768Z,62.60
2022-08-11T11:11:07.838Z,63.40
2022-08-11T11:13:55.570Z,61.50
2022-08-11T11:16:28.240Z,62.30
2022-08-11T11:19:00.691Z,61.40
2022-08-11T11:21:28.665Z,59.20
2022-08-11T11:24:17.511Z,58.70
2022-08-11T11:26:50.362Z,58.80
2022-08-11T11:29:25.228Z,58.10
2022-08-11T11:32:27.778Z,59.10
2022-08-11T11:35:15.659Z,58.70
2022-08-11T11:37:58.502Z,58.50
2022-08-11T11:40:32.874Z,59.20
2022-08-11T11:43:01.049Z,59.50
2022-08-11T11:45:28.446Z,59.70
2022-08-11T11:47:59.036Z,58.50
2022-08-11T11:50:37.175Z,59.20
2022-08-11T11:53:09.950Z,57.80
2022-08-11T11:55:37.959Z,58.70
2022-08-11T11:58:25.054Z,57.10
2022-08-11T12:01:12.297Z,56.00
2022-08-11T12:03:40.297Z,57.00
2022-08-11T12:06:09.362Z,56.50
2022-08-11T12:08:37.557Z,54.60
2022-08-11T12:11:27.509Z,54.40
2022-08-11T12:13:59.070Z,55.80
2022-08-11T12:16:35.327Z,56.90
2022-08-11T12:19:05.865Z,57.10
2022-08-11T12:21:34.327Z,56.60
2022-08-11T12:24:21.358Z,56.20
2022-08-11T12:27:01.426Z,55.60
2022-08-11T12:29:41.117Z,56.00
2022-08-11T12:32:12.559Z,54.70
2022-08-11T12:34:39.440Z,54.70
2022-08-11T12:37:13.003Z,55.10
2022-08-11T12:40:16.752Z,56.00
2022-08-11T12:43:21.117Z,55.40
2022-08-11T12:45:58.429Z,56.70
2022-08-11T12:49:00.343Z,55.10
2022-08-11T12:52:06.743Z,54.80
2022-08-11T12:55:02.937Z,54.10
2022-08-11T12:57:57.744Z,55.00
2022-08-11T13:00:45.200Z,53.80
2022-08-11T13:03:33.041Z,53.30
2022-08-11T13:06:04.705Z,54.40
2022-08-11T13:08:35.642Z,53.60
2022-08-11T13:11:23.280Z,53.20
2022-08-11T13:13:57.014Z,53.40
2022-08-11T13:16:56.680Z,53.30
2022-08-11T13:19:24.142Z,54.10
2022-08-11T13:21:52.944Z,52.40
2022-08-11T13:24:21.693Z,52.60
2022-08-11T13:26:50.581Z,52.40
2022-08-11T13:29:22.718Z,52.20
2022-08-11T13:31:51.400Z,52.90
2022-08-11T13:34:20.465Z,52.30
2022-08-11T13:36:54.258Z,51.60
2022-08-11T13:39:24.544Z,51.20
2022-08-11T13:41:57.153Z,50.80
2022-08-11T13:44:27.503Z,50.30
2022-08-11T13:47:06.666Z,50.40
2022-08-11T13:49:40.208Z,50.40
2022-08-11T13:52:14.592Z,49.70
2022-08-11T13:54:43.076Z,51.00
2022-08-11T13:57:13.692Z,49.30
2022-08-11T14:00:09.680Z,48.70
2022-08-11T14:02:42.831Z,49.50
2022-08-11T14:05:16.075Z,49.80
2022-08-11T14:07:52.676Z,48.20
2022-08-11T14:10:28.858Z,49.70
2022-08-11T14:13:19.939Z,49.80
2022-08-11T14:15:49.196Z,47.40
2022-08-11T14:18:22.776Z,47.10
2022-08-11T14:21:12.824Z,47.70
2022-08-11T14:23:42.429Z,47.40
2022-08-11T14:26:27.132Z,47.20
2022-08-11T14:28:59.368Z,47.10
2022-08-11T14:31:28.499Z,47.60
2022-08-11T14:34:00.287Z,46.80
2022-08-11T14:36:36.028Z,46.00
2022-08-11T14:39:13.506Z,46.60
2022-08-11T14:42:12.666Z,46.10
2022-08-11T14:45:06.526Z,47.50
2022-08-11T14:47:40.448Z,47.80
2022-08-11T14:50:14.125Z,46.70
2022-08-11T14:53:01.601Z,47.80
2022-08-11T14:55:50.102Z,47.00
2022-08-11T14:58:20.453Z,47.80
2022-08-11T15:00:50.785Z,45.10
2022-08-11T15:03:18.071Z,47.00
2022-08-11T15:05:54.218Z,46.00
2022-08-11T15:08:48.834Z,46.00
2022-08-11T15:11:36.477Z,46.50
2022-08-11T15:14:06.071Z,45.50
2022-08-11T15:16:51.890Z,45.50
2022-08-11T15:19:21.275Z,46.00
2022-08-11T15:22:08.398Z,46.20
2022-08-11T15:24:36.587Z,45.50
2022-08-11T15:27:33.329Z,45.00
2022-08-11T15:30:33.535Z,45.10
2022-08-11T15:33:25.614Z,44.10
2022-08-11T15:36:12.826Z,46.80
2022-08-11T15:38:49.210Z,45.70
2022-08-11T15:41:58.861Z,45.00
2022-08-11T15:45:04.874Z,44.80
2022-08-11T15:48:00.671Z,43.90
2022-08-11T15:50:38.106Z,43.50
2022-08-11T15:53:11.923Z,46.20
2022-08-11T15:55:39.729Z,44.60
2022-08-11T15:58:35.849Z,45.40
2022-08-11T16:01:23.233Z,44.20
2022-08-11T16:04:13.141Z,43.20
2022-08-11T16:06:49.900Z,43.40
2022-08-11T16:09:21.952Z,43.30
2022-08-11T16:11:51.383Z,44.10
2022-08-11T16:14:38.790Z,43.40
2022-08-11T16:17:09.169Z,42.80
2022-08-11T16:19:37.728Z,43.00
2022-08-11T16:22:10.171Z,43.10
2022-08-11T16:27:03.002Z,42.90
2022-08-11T16:27:40.302Z,43.60
2022-08-11T16:30:08.792Z,42.80
2022-08-11T16:32:39.547Z,43.30
2022-08-11T16:35:39.628Z,43.90
2022-08-11T16:38:27.013Z,42.20
2022-08-11T16:40:56.412Z,42.80
2022-08-11T16:43:44.749Z,42.80
2022-08-11T16:46:32.535Z,43.90
2022-08-11T16:49:03.271Z,43.70
2022-08-11T16:51:31.814Z,42.80
2022-08-11T16:54:04.768Z,42.60
2022-08-11T16:56:47.973Z,42.40
2022-08-11T16:59:33.669Z,43.20
2022-08-11T17:02:08.145Z,43.50
2022-08-11T17:05:08.736Z,44.50
2022-08-11T17:07:58.035Z,45.30
2022-08-11T17:10:54.790Z,45.10
2022-08-11T17:13:31.822Z,45.80
2022-08-11T17:16:08.972Z,45.60
2022-08-11T17:18:51.208Z,45.60
2022-08-11T17:21:23.993Z,45.80
2022-08-11T17:23:55.436Z,46.30
2022-08-11T17:26:52.101Z,46.50
2022-08-11T17:29:28.776Z,47.40
2022-08-11T17:32:15.805Z,47.20
2022-08-11T17:35:03.184Z,47.70
2022-08-11T17:37:33.100Z,47.90
2022-08-11T17:40:05.118Z,48.00
2022-08-11T17:42:51.677Z,47.90
2022-08-11T17:45:39.346Z,48.10
2022-08-11T17:48:25.621Z,48.60
2022-08-11T17:51:05.259Z,48.60
2022-08-11T17:54:10.240Z,49.90
2022-08-11T17:57:01.591Z,49.50
2022-08-11T17:59:49.186Z,49.60
2022-08-11T18:02:44.789Z,49.70
2022-08-11T18:05:13.746Z,49.90
2022-08-11T18:08:04.486Z,50.00
2022-08-11T18:10:51.668Z,50.10
2022-08-11T18:13:40.775Z,50.30
2022-08-11T18:16:28.058Z,50.50
2022-08-11T18:19:14.232Z,50.60
2022-08-11T18:22:14.906Z,51.30
2022-08-11T18:25:27.177Z,50.90
2022-08-11T18:28:14.972Z,52.20
2022-08-11T18:31:04.369Z,51.50
2022-08-11T18:34:13.521Z,51.90
2022-08-11T18:37:29.332Z,52.40
2022-08-11T18:40:24.358Z,52.10
2022-08-11T18:43:13.889Z,52.40
2022-08-11T18:46:06.423Z,52.20
2022-08-11T18:48:56.153Z,56.00
2022-08-11T18:51:43.776Z,55.60
2022-08-11T18:54:31.326Z,56.10
2022-08-11T18:57:20.771Z,56.60
2022-08-11T19:00:07.797Z,56.00
2022-08-11T19:02:57.374Z,56.20
2022-08-11T19:06:06.051Z,55.70
2022-08-11T19:08:56.271Z,56.50
2022-08-11T19:11:43.906Z,56.00
2022-08-11T19:14:33.366Z,55.70
2022-08-11T19:17:44.425Z,57.40
2022-08-11T19:20:33.535Z,57.10
2022-08-11T19:23:21.412Z,57.20
2022-08-11T19:26:07.871Z,60.30
2022-08-11T19:28:55.916Z,59.80
2022-08-11T19:31:44.814Z,58.30
2022-08-11T19:34:37.445Z,57.60
2022-08-11T19:37:25.554Z,57.30
2022-08-11T19:40:32.876Z,58.00
2022-08-11T19:43:25.994Z,58.20
2022-08-11T19:46:15.083Z,58.40
2022-08-11T19:49:03.695Z,60.70
2022-08-11T19:51:53.446Z,59.10
2022-08-11T19:54:42.282Z,59.30
2022-08-11T19:57:27.763Z,60.30
2022-08-11T20:00:13.641Z,59.60
2022-08-11T20:02:59.353Z,59.80
2022-08-11T20:05:55.491Z,60.60
2022-08-11T20:08:48.015Z,60.10
2022-08-11T20:11:35.893Z,60.10
2022-08-11T20:14:22.793Z,60.30
2022-08-11T20:17:10.564Z,60.00
2022-08-11T20:22:50.113Z,60.70
2022-08-11T20:25:37.929Z,60.10
2022-08-11T20:28:25.141Z,59.80
2022-08-11T20:31:12.647Z,60.00
2022-08-11T20:33:59.501Z,60.40
2022-08-11T20:36:54.101Z,59.90
2022-08-11T20:39:43.063Z,59.80
2022-08-11T20:42:30.941Z,60.20
2022-08-11T20:45:23.929Z,60.10
2022-08-11T20:48:14.650Z,60.00
2022-08-11T20:51:06.377Z,60.20
2022-08-11T20:53:56.098Z,60.00
2022-08-11T20:56:43.120Z,60.00
2022-08-11T20:59:33.386Z,60.40
2022-08-11T21:02:35.658Z,60.30
2022-08-11T21:06:09.030Z,60.70
2022-08-11T21:08:27.624Z,60.60
2022-08-11T21:11:14.133Z,60.70
2022-08-11T21:14:13.683Z,61.10
2022-08-11T21:17:26.919Z,60.90
2022-08-11T21:20:13.099Z,60.60
2022-08-11T21:23:35.052Z,60.90
2022-08-11T21:26:26.884Z,61.50
2022-08-11T21:29:16.639Z,61.00
2022-08-11T21:32:03.261Z,61.20
2022-08-11T21:34:51.066Z,61.20
2022-08-11T21:37:37.950Z,61.10
2022-08-11T21:40:25.581Z,61.30
2022-08-11T21:43:12.701Z,61.20
2022-08-11T21:45:59.673Z,61.30
2022-08-11T21:48:46.078Z,61.40
2022-08-11T21:51:31.594Z,62.30
2022-08-11T21:54:19.595Z,61.60
2022-08-11T21:57:06.363Z,62.10
2022-08-11T22:00:10.384Z,62.10
2022-08-11T22:02:57.170Z,62.30
2022-08-11T22:05:44.759Z,62.30
2022-08-11T22:08:31.594Z,62.20
2022-08-11T22:11:32.446Z,62.60
2022-08-11T22:14:19.777Z,62.70
2022-08-11T22:17:05.132Z,63.10
2022-08-11T22:19:51.107Z,63.30
2022-08-11T22:22:51.265Z,63.40
2022-08-11T22:25:51.045Z,64.10
2022-08-11T22:28:40.968Z,63.90
2022-08-11T22:31:27.651Z,64.10
2022-08-11T22:34:13.622Z,63.90
2022-08-11T22:37:01.288Z,64.00
2022-08-11T22:40:01.691Z,64.10
2022-08-11T22:42:52.479Z,64.50
2022-08-11T22:45:38.697Z,64.30
2022-08-11T22:48:26.563Z,64.40
2022-08-11T22:51:13.709Z,64.50
2022-08-11T22:54:00.241Z,65.00
2022-08-11T22:56:48.376Z,65.20
2022-08-11T22:59:36.184Z,65.20
2022-08-11T23:02:24.238Z,65.40
2022-08-11T23:05:10.770Z,65.70
2022-08-11T23:07:57.946Z,65.60
2022-08-11T23:10:44.382Z,65.70
2022-08-11T23:13:29.884Z,65.90
2022-08-11T23:16:15.462Z,65.90
2022-08-11T23:19:01.782Z,66.10
2022-08-11T23:21:48.372Z,66.40
2022-08-11T23:24:35.346Z,66.90
2022-08-11T23:27:21.629Z,67.10
2022-08-11T23:30:11.308Z,67.30
2022-08-11T23:32:59.173Z,67.30
2022-08-11T23:35:51.935Z,67.50
2022-08-11T23:38:40.723Z,67.90
2022-08-11T23:41:26.234Z,68.20
2022-08-11T23:44:13.099Z,68.40
2022-08-11T23:47:00.013Z,68.60
2022-08-11T23:49:46.694Z,68.90
2022-08-11T23:52:33.494Z,69.20
2022-08-11T23:55:19.150Z,69.10
2022-08-11T23:58:04.698Z,69.20
